sensor_id;sensor_type;location;lat;lon;timestamp;temperature;humidity
8939;DHT22;4504;48.810;9.172;2023-04-25T00:00:07;9.20;99.90
8939;DHT22;4504;48.810;9.172;2023-04-25T00:02:38;9.20;99.90
8939;DHT22;4504;48.810;9.172;2023-04-25T00:05:05;9.20;99.90
8939;DHT22;4504;48.810;9.172;2023-04-25T00:07:33;9.30;99.90
8939;DHT22;4504;48.810;9.172;2023-04-25T00:10:02;9.40;99.90
8939;DHT22;4504;48.810;9.172;2023-04-25T00:12:29;9.40;99.90
8939;DHT22;4504;48.810;9.172;2023-04-25T00:14:56;9.50;99.90
8939;DHT22;4504;48.810;9.172;2023-04-25T00:17:23;9.60;99.90
8939;DHT22;4504;48.810;9.172;2023-04-25T00:19:51;9.50;99.90
8939;DHT22;4504;48.810;9.172;2023-04-25T00:22:18;9.60;99.90
8939;DHT22;4504;48.810;9.172;2023-04-25T00:24:45;9.60;99.90
8939;DHT22;4504;48.810;9.172;2023-04-25T00:27:13;9.60;99.90
8939;DHT22;4504;48.810;9.172;2023-04-25T00:29:40;9.60;99.90
8939;DHT22;4504;48.810;9.172;2023-04-25T00:32:07;9.70;99.90
8939;DHT22;4504;48.810;9.172;2023-04-25T00:34:34;9.60;99.90
8939;DHT22;4504;48.810;9.172;2023-04-25T00:37:01;9.60;99.90
8939;DHT22;4504;48.810;9.172;2023-04-25T00:39:28;9.60;99.90
8939;DHT22;4504;48.810;9.172;2023-04-25T00:41:55;9.50;99.90
8939;DHT22;4504;48.810;9.172;2023-04-25T00:44:24;9.50;99.90
8939;DHT22;4504;48.810;9.172;2023-04-25T00:46:53;9.60;99.90
8939;DHT22;4504;48.810;9.172;2023-04-25T00:49:20;9.60;99.90
8939;DHT22;4504;48.810;9.172;2023-04-25T00:51:48;9.60;99.90
8939;DHT22;4504;48.810;9.172;2023-04-25T00:54:15;9.60;99.90
8939;DHT22;4504;48.810;9.172;2023-04-25T00:56:43;9.60;99.90
8939;DHT22;4504;48.810;9.172;2023-04-25T00:59:11;9.60;99.90
8939;DHT22;4504;48.810;9.172;2023-04-25T01:01:41;9.50;99.90
8939;DHT22;4504;48.810;9.172;2023-04-25T01:04:08;9.50;99.90
8939;DHT22;4504;48.810;9.172;2023-04-25T01:06:36;9.50;99.90
8939;DHT22;4504;48.810;9.172;2023-04-25T01:09:04;9.40;99.90
8939;DHT22;4504;48.810;9.172;2023-04-25T01:11:31;9.40;99.90
8939;DHT22;4504;48.810;9.172;2023-04-25T01:13:58;9.40;99.90
8939;DHT22;4504;48.810;9.172;2023-04-25T01:16:26;9.40;99.90
8939;DHT22;4504;48.810;9.172;2023-04-25T01:18:54;9.50;99.90
8939;DHT22;4504;48.810;9.172;2023-04-25T01:21:23;9.40;99.90
8939;DHT22;4504;48.810;9.172;2023-04-25T01:23:52;9.50;99.90
8939;DHT22;4504;48.810;9.172;2023-04-25T01:26:21;9.50;99.90
8939;DHT22;4504;48.810;9.172;2023-04-25T01:28:49;9.50;99.90
8939;DHT22;4504;48.810;9.172;2023-04-25T01:31:17;9.40;99.90
8939;DHT22;4504;48.810;9.172;2023-04-25T01:33:45;9.40;99.90
8939;DHT22;4504;48.810;9.172;2023-04-25T01:36:13;9.30;99.90
8939;DHT22;4504;48.810;9.172;2023-04-25T01:38:42;9.40;99.90
8939;DHT22;4504;48.810;9.172;2023-04-25T01:41:12;9.30;99.90
8939;DHT22;4504;48.810;9.172;2023-04-25T01:43:40;9.30;99.90
8939;DHT22;4504;48.810;9.172;2023-04-25T01:46:07;9.20;99.90
8939;DHT22;4504;48.810;9.172;2023-04-25T01:48:34;9.20;99.90
8939;DHT22;4504;48.810;9.172;2023-04-25T01:51:01;9.20;99.90
8939;DHT22;4504;48.810;9.172;2023-04-25T01:53:29;9.20;99.90
8939;DHT22;4504;48.810;9.172;2023-04-25T01:55:58;9.30;99.90
8939;DHT22;4504;48.810;9.172;2023-04-25T01:58:30;9.30;99.90
8939;DHT22;4504;48.810;9.172;2023-04-25T02:01:04;9.30;99.90
8939;DHT22;4504;48.810;9.172;2023-04-25T02:03:39;9.20;99.90
8939;DHT22;4504;48.810;9.172;2023-04-25T02:06:10;9.20;99.90
8939;DHT22;4504;48.810;9.172;2023-04-25T02:08:42;9.30;99.90
8939;DHT22;4504;48.810;9.172;2023-04-25T02:11:12;9.40;99.90
8939;DHT22;4504;48.810;9.172;2023-04-25T02:13:48;9.50;99.90
8939;DHT22;4504;48.810;9.172;2023-04-25T02:16:36;9.50;99.90
8939;DHT22;4504;48.810;9.172;2023-04-25T02:19:03;9.50;99.90
8939;DHT22;4504;48.810;9.172;2023-04-25T02:21:30;9.50;99.90
8939;DHT22;4504;48.810;9.172;2023-04-25T02:23:58;9.60;99.90
8939;DHT22;4504;48.810;9.172;2023-04-25T02:26:29;9.60;99.90
8939;DHT22;4504;48.810;9.172;2023-04-25T02:28:56;9.50;99.90
8939;DHT22;4504;48.810;9.172;2023-04-25T02:31:23;9.50;99.90
8939;DHT22;4504;48.810;9.172;2023-04-25T02:33:51;9.40;99.90
8939;DHT22;4504;48.810;9.172;2023-04-25T02:36:18;9.40;99.90
8939;DHT22;4504;48.810;9.172;2023-04-25T02:38:48;9.20;99.90
8939;DHT22;4504;48.810;9.172;2023-04-25T02:41:15;9.20;99.90
8939;DHT22;4504;48.810;9.172;2023-04-25T02:43:43;9.20;99.90
8939;DHT22;4504;48.810;9.172;2023-04-25T02:46:10;9.30;99.90
8939;DHT22;4504;48.810;9.172;2023-04-25T02:48:39;9.40;99.90
8939;DHT22;4504;48.810;9.172;2023-04-25T02:51:06;9.50;99.90
8939;DHT22;4504;48.810;9.172;2023-04-25T02:53:33;9.50;99.90
8939;DHT22;4504;48.810;9.172;2023-04-25T02:56:00;9.50;99.90
8939;DHT22;4504;48.810;9.172;2023-04-25T02:58:27;9.40;99.90
8939;DHT22;4504;48.810;9.172;2023-04-25T03:00:56;9.30;99.90
8939;DHT22;4504;48.810;9.172;2023-04-25T03:03:23;9.30;99.90
8939;DHT22;4504;48.810;9.172;2023-04-25T03:05:51;9.40;99.90
8939;DHT22;4504;48.810;9.172;2023-04-25T03:08:23;9.20;99.90
8939;DHT22;4504;48.810;9.172;2023-04-25T03:10:51;9.20;99.90
8939;DHT22;4504;48.810;9.172;2023-04-25T03:13:21;9.10;99.90
8939;DHT22;4504;48.810;9.172;2023-04-25T03:15:48;9.10;99.90
8939;DHT22;4504;48.810;9.172;2023-04-25T03:18:16;9.20;99.90
8939;DHT22;4504;48.810;9.172;2023-04-25T03:20:44;9.10;99.90
8939;DHT22;4504;48.810;9.172;2023-04-25T03:23:11;9.10;99.90
8939;DHT22;4504;48.810;9.172;2023-04-25T03:25:40;9.20;99.90
8939;DHT22;4504;48.810;9.172;2023-04-25T03:28:08;9.30;99.90
8939;DHT22;4504;48.810;9.172;2023-04-25T03:30:35;9.40;99.90
8939;DHT22;4504;48.810;9.172;2023-04-25T03:33:02;9.40;99.90
8939;DHT22;4504;48.810;9.172;2023-04-25T03:35:30;9.40;99.90
8939;DHT22;4504;48.810;9.172;2023-04-25T03:37:57;9.40;99.90
8939;DHT22;4504;48.810;9.172;2023-04-25T03:40:28;9.40;99.90
8939;DHT22;4504;48.810;9.172;2023-04-25T03:43:06;9.50;99.90
8939;DHT22;4504;48.810;9.172;2023-04-25T03:45:35;9.50;99.90
8939;DHT22;4504;48.810;9.172;2023-04-25T03:48:02;9.50;99.90
8939;DHT22;4504;48.810;9.172;2023-04-25T03:50:31;9.40;99.90
8939;DHT22;4504;48.810;9.172;2023-04-25T03:52:58;9.30;99.90
8939;DHT22;4504;48.810;9.172;2023-04-25T03:55:28;9.20;99.90
8939;DHT22;4504;48.810;9.172;2023-04-25T03:57:55;9.30;99.90
8939;DHT22;4504;48.810;9.172;2023-04-25T04:00:26;9.30;99.90
8939;DHT22;4504;48.810;9.172;2023-04-25T04:02:53;9.30;99.90
8939;DHT22;4504;48.810;9.172;2023-04-25T04:05:20;9.40;99.90
8939;DHT22;4504;48.810;9.172;2023-04-25T04:07:54;9.20;99.90
8939;DHT22;4504;48.810;9.172;2023-04-25T04:10:22;9.30;99.90
8939;DHT22;4504;48.810;9.172;2023-04-25T04:12:49;9.30;99.90
8939;DHT22;4504;48.810;9.172;2023-04-25T04:15:16;9.30;99.90
8939;DHT22;4504;48.810;9.172;2023-04-25T04:17:45;9.30;99.90
8939;DHT22;4504;48.810;9.172;2023-04-25T04:20:12;9.20;99.90
8939;DHT22;4504;48.810;9.172;2023-04-25T04:22:40;9.10;99.90
8939;DHT22;4504;48.810;9.172;2023-04-25T04:25:11;9.10;99.90
8939;DHT22;4504;48.810;9.172;2023-04-25T04:28:02;9.10;99.90
8939;DHT22;4504;48.810;9.172;2023-04-25T04:30:40;9.00;99.90
8939;DHT22;4504;48.810;9.172;2023-04-25T04:33:08;9.10;99.90
8939;DHT22;4504;48.810;9.172;2023-04-25T04:35:35;9.00;99.90
8939;DHT22;4504;48.810;9.172;2023-04-25T04:38:03;9.10;99.90
8939;DHT22;4504;48.810;9.172;2023-04-25T04:40:37;9.00;99.90
8939;DHT22;4504;48.810;9.172;2023-04-25T04:43:23;9.00;99.90
8939;DHT22;4504;48.810;9.172;2023-04-25T04:46:22;9.10;99.90
8939;DHT22;4504;48.810;9.172;2023-04-25T04:49:11;8.90;99.90
8939;DHT22;4504;48.810;9.172;2023-04-25T04:52:17;8.70;99.90
8939;DHT22;4504;48.810;9.172;2023-04-25T04:55:01;8.60;99.90
8939;DHT22;4504;48.810;9.172;2023-04-25T04:57:53;8.60;99.90
8939;DHT22;4504;48.810;9.172;2023-04-25T05:00:37;8.70;99.90
8939;DHT22;4504;48.810;9.172;2023-04-25T05:03:23;8.70;99.90
8939;DHT22;4504;48.810;9.172;2023-04-25T05:06:05;8.60;99.90
8939;DHT22;4504;48.810;9.172;2023-04-25T05:08:49;8.50;99.90
8939;DHT22;4504;48.810;9.172;2023-04-25T05:11:29;8.50;99.90
8939;DHT22;4504;48.810;9.172;2023-04-25T05:14:19;8.50;99.90
8939;DHT22;4504;48.810;9.172;2023-04-25T05:17:05;8.60;99.90
8939;DHT22;4504;48.810;9.172;2023-04-25T05:19:39;8.60;99.90
8939;DHT22;4504;48.810;9.172;2023-04-25T05:22:31;8.70;99.90
8939;DHT22;4504;48.810;9.172;2023-04-25T05:25:12;9.00;99.90
8939;DHT22;4504;48.810;9.172;2023-04-25T05:27:57;8.90;99.90
8939;DHT22;4504;48.810;9.172;2023-04-25T05:30:49;8.80;99.90
8939;DHT22;4504;48.810;9.172;2023-04-25T05:33:19;8.70;99.90
8939;DHT22;4504;48.810;9.172;2023-04-25T05:35:46;8.70;99.90
8939;DHT22;4504;48.810;9.172;2023-04-25T05:38:14;8.80;99.90
8939;DHT22;4504;48.810;9.172;2023-04-25T05:41:00;8.70;99.90
8939;DHT22;4504;48.810;9.172;2023-04-25T05:44:03;8.60;99.90
8939;DHT22;4504;48.810;9.172;2023-04-25T05:46:41;8.50;99.90
8939;DHT22;4504;48.810;9.172;2023-04-25T05:49:21;8.60;99.90
8939;DHT22;4504;48.810;9.172;2023-04-25T05:52:23;8.60;99.90
8939;DHT22;4504;48.810;9.172;2023-04-25T05:55:09;8.50;99.90
8939;DHT22;4504;48.810;9.172;2023-04-25T05:57:36;8.60;99.90
8939;DHT22;4504;48.810;9.172;2023-04-25T06:00:08;8.60;99.90
8939;DHT22;4504;48.810;9.172;2023-04-25T06:02:43;8.40;99.90
8939;DHT22;4504;48.810;9.172;2023-04-25T06:05:12;8.40;99.90
8939;DHT22;4504;48.810;9.172;2023-04-25T06:07:39;8.40;99.90
8939;DHT22;4504;48.810;9.172;2023-04-25T06:10:08;8.50;99.90
8939;DHT22;4504;48.810;9.172;2023-04-25T06:12:35;8.50;99.90
8939;DHT22;4504;48.810;9.172;2023-04-25T06:15:04;8.50;99.90
8939;DHT22;4504;48.810;9.172;2023-04-25T06:17:31;8.50;99.90
8939;DHT22;4504;48.810;9.172;2023-04-25T06:19:59;8.50;99.90
8939;DHT22;4504;48.810;9.172;2023-04-25T06:22:27;8.80;99.90
8939;DHT22;4504;48.810;9.172;2023-04-25T06:24:56;8.80;99.90
8939;DHT22;4504;48.810;9.172;2023-04-25T06:27:24;8.80;99.90
8939;DHT22;4504;48.810;9.172;2023-04-25T06:29:51;8.90;99.90
8939;DHT22;4504;48.810;9.172;2023-04-25T06:32:18;9.00;99.90
8939;DHT22;4504;48.810;9.172;2023-04-25T06:34:46;8.90;99.90
8939;DHT22;4504;48.810;9.172;2023-04-25T06:37:15;8.90;99.90
8939;DHT22;4504;48.810;9.172;2023-04-25T06:39:42;9.00;99.90
8939;DHT22;4504;48.810;9.172;2023-04-25T06:42:10;9.10;99.90
8939;DHT22;4504;48.810;9.172;2023-04-25T06:44:45;9.30;99.90
8939;DHT22;4504;48.810;9.172;2023-04-25T06:47:14;9.40;99.90
8939;DHT22;4504;48.810;9.172;2023-04-25T06:49:42;9.40;99.90
8939;DHT22;4504;48.810;9.172;2023-04-25T06:52:09;9.40;99.90
8939;DHT22;4504;48.810;9.172;2023-04-25T06:54:39;9.30;99.90
8939;DHT22;4504;48.810;9.172;2023-04-25T06:57:26;9.30;99.90
8939;DHT22;4504;48.810;9.172;2023-04-25T06:59:55;9.00;99.90
8939;DHT22;4504;48.810;9.172;2023-04-25T07:02:22;9.00;99.90
8939;DHT22;4504;48.810;9.172;2023-04-25T07:04:52;9.20;99.90
8939;DHT22;4504;48.810;9.172;2023-04-25T07:07:19;9.10;99.90
8939;DHT22;4504;48.810;9.172;2023-04-25T07:09:54;9.00;99.90
8939;DHT22;4504;48.810;9.172;2023-04-25T07:12:21;9.20;99.90
8939;DHT22;4504;48.810;9.172;2023-04-25T07:14:48;9.30;99.90
8939;DHT22;4504;48.810;9.172;2023-04-25T07:17:15;9.20;99.90
8939;DHT22;4504;48.810;9.172;2023-04-25T07:19:43;9.30;99.90
8939;DHT22;4504;48.810;9.172;2023-04-25T07:22:10;9.40;99.90
8939;DHT22;4504;48.810;9.172;2023-04-25T07:24:40;9.50;99.90
8939;DHT22;4504;48.810;9.172;2023-04-25T07:27:11;9.30;99.90
8939;DHT22;4504;48.810;9.172;2023-04-25T07:29:55;9.20;99.90
8939;DHT22;4504;48.810;9.172;2023-04-25T07:32:23;9.10;99.90
8939;DHT22;4504;48.810;9.172;2023-04-25T07:34:50;9.00;99.90
8939;DHT22;4504;48.810;9.172;2023-04-25T07:37:17;9.00;99.90
8939;DHT22;4504;48.810;9.172;2023-04-25T07:39:58;8.90;99.90
8939;DHT22;4504;48.810;9.172;2023-04-25T07:42:27;8.90;99.90
8939;DHT22;4504;48.810;9.172;2023-04-25T07:44:54;9.10;99.90
8939;DHT22;4504;48.810;9.172;2023-04-25T07:47:21;9.00;99.90
8939;DHT22;4504;48.810;9.172;2023-04-25T07:49:48;9.00;99.90
8939;DHT22;4504;48.810;9.172;2023-04-25T07:52:15;9.00;99.90
8939;DHT22;4504;48.810;9.172;2023-04-25T07:54:48;9.00;99.90
8939;DHT22;4504;48.810;9.172;2023-04-25T07:57:20;9.00;99.90
8939;DHT22;4504;48.810;9.172;2023-04-25T07:59:49;8.90;99.90
8939;DHT22;4504;48.810;9.172;2023-04-25T08:02:18;8.70;99.90
8939;DHT22;4504;48.810;9.172;2023-04-25T08:04:45;8.70;99.90
8939;DHT22;4504;48.810;9.172;2023-04-25T08:07:16;8.60;99.90
8939;DHT22;4504;48.810;9.172;2023-04-25T08:09:54;8.70;99.90
8939;DHT22;4504;48.810;9.172;2023-04-25T08:12:25;8.70;99.90
8939;DHT22;4504;48.810;9.172;2023-04-25T08:14:54;8.80;99.90
8939;DHT22;4504;48.810;9.172;2023-04-25T08:17:23;8.80;99.90
8939;DHT22;4504;48.810;9.172;2023-04-25T08:19:50;8.80;99.90
8939;DHT22;4504;48.810;9.172;2023-04-25T08:22:29;8.80;99.90
8939;DHT22;4504;48.810;9.172;2023-04-25T08:25:15;8.90;99.90
8939;DHT22;4504;48.810;9.172;2023-04-25T08:27:43;8.80;99.90
8939;DHT22;4504;48.810;9.172;2023-04-25T08:30:12;8.80;99.90
8939;DHT22;4504;48.810;9.172;2023-04-25T08:32:41;8.90;99.90
8939;DHT22;4504;48.810;9.172;2023-04-25T08:35:24;9.00;99.90
8939;DHT22;4504;48.810;9.172;2023-04-25T08:37:51;8.80;99.90
8939;DHT22;4504;48.810;9.172;2023-04-25T08:40:19;8.70;99.90
8939;DHT22;4504;48.810;9.172;2023-04-25T08:43:00;8.50;99.90
8939;DHT22;4504;48.810;9.172;2023-04-25T08:45:31;8.50;99.90
8939;DHT22;4504;48.810;9.172;2023-04-25T08:47:59;8.60;99.90
8939;DHT22;4504;48.810;9.172;2023-04-25T08:50:27;8.80;99.90
8939;DHT22;4504;48.810;9.172;2023-04-25T08:52:54;8.90;99.90
8939;DHT22;4504;48.810;9.172;2023-04-25T08:55:21;9.10;99.90
8939;DHT22;4504;48.810;9.172;2023-04-25T08:57:54;9.20;99.90
8939;DHT22;4504;48.810;9.172;2023-04-25T09:00:22;9.10;99.90
8939;DHT22;4504;48.810;9.172;2023-04-25T09:02:50;9.10;99.90
8939;DHT22;4504;48.810;9.172;2023-04-25T09:05:18;8.80;99.90
8939;DHT22;4504;48.810;9.172;2023-04-25T09:07:45;8.50;99.90
8939;DHT22;4504;48.810;9.172;2023-04-25T09:10:12;8.40;99.90
8939;DHT22;4504;48.810;9.172;2023-04-25T09:12:39;8.30;99.90
8939;DHT22;4504;48.810;9.172;2023-04-25T09:15:09;8.30;99.90
8939;DHT22;4504;48.810;9.172;2023-04-25T09:18:08;8.40;99.90
8939;DHT22;4504;48.810;9.172;2023-04-25T09:20:41;8.60;99.90
8939;DHT22;4504;48.810;9.172;2023-04-25T09:23:09;8.70;99.90
8939;DHT22;4504;48.810;9.172;2023-04-25T09:25:38;8.90;99.90
8939;DHT22;4504;48.810;9.172;2023-04-25T09:28:07;8.70;99.90
8939;DHT22;4504;48.810;9.172;2023-04-25T09:30:35;8.70;99.90
8939;DHT22;4504;48.810;9.172;2023-04-25T09:33:18;8.80;99.90
8939;DHT22;4504;48.810;9.172;2023-04-25T09:35:48;8.90;99.90
8939;DHT22;4504;48.810;9.172;2023-04-25T09:38:41;9.00;99.90
8939;DHT22;4504;48.810;9.172;2023-04-25T09:41:22;9.00;99.90
8939;DHT22;4504;48.810;9.172;2023-04-25T09:43:50;9.00;99.90
8939;DHT22;4504;48.810;9.172;2023-04-25T09:46:23;9.00;99.90
8939;DHT22;4504;48.810;9.172;2023-04-25T09:48:55;9.00;99.90
8939;DHT22;4504;48.810;9.172;2023-04-25T09:51:30;9.00;99.90
8939;DHT22;4504;48.810;9.172;2023-04-25T09:53:59;8.60;99.90
8939;DHT22;4504;48.810;9.172;2023-04-25T09:56:41;8.70;99.90
8939;DHT22;4504;48.810;9.172;2023-04-25T09:59:09;8.70;99.90
8939;DHT22;4504;48.810;9.172;2023-04-25T10:01:40;8.60;99.90
8939;DHT22;4504;48.810;9.172;2023-04-25T10:04:18;8.50;99.90
8939;DHT22;4504;48.810;9.172;2023-04-25T10:06:51;8.40;99.90
8939;DHT22;4504;48.810;9.172;2023-04-25T10:09:20;8.30;99.90
8939;DHT22;4504;48.810;9.172;2023-04-25T10:11:48;8.20;99.90
8939;DHT22;4504;48.810;9.172;2023-04-25T10:14:17;7.90;99.90
8939;DHT22;4504;48.810;9.172;2023-04-25T10:16:45;7.70;99.90
8939;DHT22;4504;48.810;9.172;2023-04-25T10:19:16;7.50;99.90
8939;DHT22;4504;48.810;9.172;2023-04-25T10:21:48;7.40;99.90
8939;DHT22;4504;48.810;9.172;2023-04-25T10:24:16;7.40;99.90
8939;DHT22;4504;48.810;9.172;2023-04-25T10:26:44;7.50;99.90
8939;DHT22;4504;48.810;9.172;2023-04-25T10:29:11;7.60;99.90
8939;DHT22;4504;48.810;9.172;2023-04-25T10:31:45;7.70;99.90
8939;DHT22;4504;48.810;9.172;2023-04-25T10:34:13;7.90;99.90
8939;DHT22;4504;48.810;9.172;2023-04-25T10:36:41;7.90;99.90
8939;DHT22;4504;48.810;9.172;2023-04-25T10:39:08;7.90;99.90
8939;DHT22;4504;48.810;9.172;2023-04-25T10:41:51;7.80;99.90
8939;DHT22;4504;48.810;9.172;2023-04-25T10:44:19;7.60;99.90
8939;DHT22;4504;48.810;9.172;2023-04-25T10:46:46;7.40;99.90
8939;DHT22;4504;48.810;9.172;2023-04-25T10:49:30;7.30;99.90
8939;DHT22;4504;48.810;9.172;2023-04-25T10:52:18;7.20;99.90
8939;DHT22;4504;48.810;9.172;2023-04-25T10:54:51;7.10;99.90
8939;DHT22;4504;48.810;9.172;2023-04-25T10:57:29;7.10;99.90
8939;DHT22;4504;48.810;9.172;2023-04-25T11:00:01;7.00;99.90
8939;DHT22;4504;48.810;9.172;2023-04-25T11:02:43;7.10;99.90
8939;DHT22;4504;48.810;9.172;2023-04-25T11:05:18;7.10;99.90
8939;DHT22;4504;48.810;9.172;2023-04-25T11:07:50;7.10;99.90
8939;DHT22;4504;48.810;9.172;2023-04-25T11:10:18;7.20;99.90
8939;DHT22;4504;48.810;9.172;2023-04-25T11:12:46;7.30;99.90
8939;DHT22;4504;48.810;9.172;2023-04-25T11:15:13;7.40;99.90
8939;DHT22;4504;48.810;9.172;2023-04-25T11:17:40;7.60;99.90
8939;DHT22;4504;48.810;9.172;2023-04-25T11:20:09;7.70;99.90
8939;DHT22;4504;48.810;9.172;2023-04-25T11:22:38;7.70;99.90
8939;DHT22;4504;48.810;9.172;2023-04-25T11:25:09;7.70;99.90
8939;DHT22;4504;48.810;9.172;2023-04-25T11:27:38;7.70;99.90
8939;DHT22;4504;48.810;9.172;2023-04-25T11:30:14;7.70;99.90
8939;DHT22;4504;48.810;9.172;2023-04-25T11:32:41;7.80;99.90
8939;DHT22;4504;48.810;9.172;2023-04-25T11:35:09;7.90;99.90
8939;DHT22;4504;48.810;9.172;2023-04-25T11:37:38;7.60;99.90
8939;DHT22;4504;48.810;9.172;2023-04-25T11:40:08;7.60;99.90
8939;DHT22;4504;48.810;9.172;2023-04-25T11:42:37;7.70;99.90
8939;DHT22;4504;48.810;9.172;2023-04-25T11:45:06;7.80;99.90
8939;DHT22;4504;48.810;9.172;2023-04-25T11:47:34;7.80;99.90
8939;DHT22;4504;48.810;9.172;2023-04-25T11:50:01;7.70;99.90
8939;DHT22;4504;48.810;9.172;2023-04-25T11:52:39;7.90;99.90
8939;DHT22;4504;48.810;9.172;2023-04-25T11:55:10;7.90;99.90
8939;DHT22;4504;48.810;9.172;2023-04-25T11:57:40;7.80;99.90
8939;DHT22;4504;48.810;9.172;2023-04-25T12:00:10;7.90;99.90
8939;DHT22;4504;48.810;9.172;2023-04-25T12:02:41;7.90;99.90
8939;DHT22;4504;48.810;9.172;2023-04-25T12:05:08;8.00;99.90
8939;DHT22;4504;48.810;9.172;2023-04-25T12:07:36;8.00;99.90
8939;DHT22;4504;48.810;9.172;2023-04-25T12:10:09;8.00;99.90
8939;DHT22;4504;48.810;9.172;2023-04-25T12:12:37;8.00;99.90
8939;DHT22;4504;48.810;9.172;2023-04-25T12:15:09;7.90;99.90
8939;DHT22;4504;48.810;9.172;2023-04-25T12:17:36;8.00;99.90
8939;DHT22;4504;48.810;9.172;2023-04-25T12:20:09;8.10;99.90
8939;DHT22;4504;48.810;9.172;2023-04-25T12:22:36;8.10;99.90
8939;DHT22;4504;48.810;9.172;2023-04-25T12:25:03;8.10;99.90
8939;DHT22;4504;48.810;9.172;2023-04-25T12:27:32;8.00;99.90
8939;DHT22;4504;48.810;9.172;2023-04-25T12:29:59;8.00;99.90
8939;DHT22;4504;48.810;9.172;2023-04-25T12:32:27;8.10;99.90
8939;DHT22;4504;48.810;9.172;2023-04-25T12:34:54;8.20;99.90
8939;DHT22;4504;48.810;9.172;2023-04-25T12:37:21;8.00;99.90
8939;DHT22;4504;48.810;9.172;2023-04-25T12:39:48;8.30;99.90
8939;DHT22;4504;48.810;9.172;2023-04-25T12:42:15;8.30;99.90
8939;DHT22;4504;48.810;9.172;2023-04-25T12:44:43;8.60;99.90
8939;DHT22;4504;48.810;9.172;2023-04-25T12:47:10;9.00;99.90
8939;DHT22;4504;48.810;9.172;2023-04-25T12:49:37;9.50;99.90
8939;DHT22;4504;48.810;9.172;2023-04-25T12:52:04;10.00;99.90
8939;DHT22;4504;48.810;9.172;2023-04-25T12:54:31;10.10;99.90
8939;DHT22;4504;48.810;9.172;2023-04-25T12:56:58;10.10;99.90
8939;DHT22;4504;48.810;9.172;2023-04-25T12:59:27;10.50;99.90
8939;DHT22;4504;48.810;9.172;2023-04-25T13:01:55;10.50;99.90
8939;DHT22;4504;48.810;9.172;2023-04-25T13:04:22;10.40;99.90
8939;DHT22;4504;48.810;9.172;2023-04-25T13:06:49;10.20;99.90
8939;DHT22;4504;48.810;9.172;2023-04-25T13:09:16;10.30;99.90
8939;DHT22;4504;48.810;9.172;2023-04-25T13:11:43;10.30;99.90
8939;DHT22;4504;48.810;9.172;2023-04-25T13:14:11;10.30;99.90
8939;DHT22;4504;48.810;9.172;2023-04-25T13:16:38;10.10;99.90
8939;DHT22;4504;48.810;9.172;2023-04-25T13:19:06;10.10;99.90
8939;DHT22;4504;48.810;9.172;2023-04-25T13:21:36;10.20;99.90
8939;DHT22;4504;48.810;9.172;2023-04-25T13:24:04;10.00;99.90
8939;DHT22;4504;48.810;9.172;2023-04-25T13:26:31;10.20;99.90
8939;DHT22;4504;48.810;9.172;2023-04-25T13:28:58;10.00;99.90
8939;DHT22;4504;48.810;9.172;2023-04-25T13:31:26;10.10;99.90
8939;DHT22;4504;48.810;9.172;2023-04-25T13:33:53;10.30;99.90
8939;DHT22;4504;48.810;9.172;2023-04-25T13:36:21;10.30;99.90
8939;DHT22;4504;48.810;9.172;2023-04-25T13:38:48;10.00;99.90
8939;DHT22;4504;48.810;9.172;2023-04-25T13:41:15;9.80;99.90
8939;DHT22;4504;48.810;9.172;2023-04-25T13:43:45;9.70;99.90
8939;DHT22;4504;48.810;9.172;2023-04-25T13:46:14;9.70;99.90
8939;DHT22;4504;48.810;9.172;2023-04-25T13:48:41;9.90;99.90
8939;DHT22;4504;48.810;9.172;2023-04-25T13:51:15;9.90;99.90
8939;DHT22;4504;48.810;9.172;2023-04-25T13:53:44;10.00;99.90
8939;DHT22;4504;48.810;9.172;2023-04-25T13:56:12;10.10;99.90
8939;DHT22;4504;48.810;9.172;2023-04-25T13:58:39;11.00;99.90
8939;DHT22;4504;48.810;9.172;2023-04-25T14:01:06;11.40;99.90
8939;DHT22;4504;48.810;9.172;2023-04-25T14:03:33;11.30;99.90
8939;DHT22;4504;48.810;9.172;2023-04-25T14:06:00;10.80;99.90
8939;DHT22;4504;48.810;9.172;2023-04-25T14:08:27;10.60;99.90
8939;DHT22;4504;48.810;9.172;2023-04-25T14:10:55;10.50;99.90
8939;DHT22;4504;48.810;9.172;2023-04-25T14:13:22;10.60;99.90
8939;DHT22;4504;48.810;9.172;2023-04-25T14:15:50;10.90;99.90
8939;DHT22;4504;48.810;9.172;2023-04-25T14:18:17;11.20;99.90
8939;DHT22;4504;48.810;9.172;2023-04-25T14:20:45;11.70;99.90
8939;DHT22;4504;48.810;9.172;2023-04-25T14:23:12;12.60;99.90
8939;DHT22;4504;48.810;9.172;2023-04-25T14:25:39;12.30;99.90
8939;DHT22;4504;48.810;9.172;2023-04-25T14:28:09;12.70;99.90
8939;DHT22;4504;48.810;9.172;2023-04-25T14:30:36;12.90;99.90
8939;DHT22;4504;48.810;9.172;2023-04-25T14:33:03;12.40;99.90
8939;DHT22;4504;48.810;9.172;2023-04-25T14:35:30;11.30;99.90
8939;DHT22;4504;48.810;9.172;2023-04-25T14:37:58;10.90;99.90
8939;DHT22;4504;48.810;9.172;2023-04-25T14:40:26;11.00;99.90
8939;DHT22;4504;48.810;9.172;2023-04-25T14:42:53;11.10;99.90
8939;DHT22;4504;48.810;9.172;2023-04-25T14:45:22;11.20;99.90
8939;DHT22;4504;48.810;9.172;2023-04-25T14:47:49;11.10;99.90
8939;DHT22;4504;48.810;9.172;2023-04-25T14:50:16;10.80;99.90
8939;DHT22;4504;48.810;9.172;2023-04-25T14:52:44;10.90;99.90
8939;DHT22;4504;48.810;9.172;2023-04-25T14:55:11;10.80;99.90
8939;DHT22;4504;48.810;9.172;2023-04-25T14:57:38;10.90;99.90
8939;DHT22;4504;48.810;9.172;2023-04-25T15:00:06;11.00;99.90
8939;DHT22;4504;48.810;9.172;2023-04-25T15:02:36;11.00;99.90
8939;DHT22;4504;48.810;9.172;2023-04-25T15:05:04;10.90;99.90
8939;DHT22;4504;48.810;9.172;2023-04-25T15:07:31;10.70;99.90
8939;DHT22;4504;48.810;9.172;2023-04-25T15:09:58;10.70;99.90
8939;DHT22;4504;48.810;9.172;2023-04-25T15:12:25;10.90;99.90
8939;DHT22;4504;48.810;9.172;2023-04-25T15:14:54;11.40;99.90
8939;DHT22;4504;48.810;9.172;2023-04-25T15:17:21;11.80;99.90
8939;DHT22;4504;48.810;9.172;2023-04-25T15:19:49;12.00;99.90
8939;DHT22;4504;48.810;9.172;2023-04-25T15:22:17;12.80;99.90
8939;DHT22;4504;48.810;9.172;2023-04-25T15:24:43;13.40;99.90
8939;DHT22;4504;48.810;9.172;2023-04-25T15:27:10;13.40;99.90
8939;DHT22;4504;48.810;9.172;2023-04-25T15:29:38;13.60;99.90
8939;DHT22;4504;48.810;9.172;2023-04-25T15:32:05;13.20;99.90
8939;DHT22;4504;48.810;9.172;2023-04-25T15:34:32;12.80;99.90
8939;DHT22;4504;48.810;9.172;2023-04-25T15:37:01;12.40;99.90
8939;DHT22;4504;48.810;9.172;2023-04-25T15:39:28;12.20;99.90
8939;DHT22;4504;48.810;9.172;2023-04-25T15:41:55;12.00;99.90
8939;DHT22;4504;48.810;9.172;2023-04-25T15:44:22;11.70;99.90
8939;DHT22;4504;48.810;9.172;2023-04-25T15:46:49;11.60;99.90
8939;DHT22;4504;48.810;9.172;2023-04-25T15:49:16;11.50;99.90
8939;DHT22;4504;48.810;9.172;2023-04-25T15:51:44;11.20;99.90
8939;DHT22;4504;48.810;9.172;2023-04-25T15:54:12;11.20;99.90
8939;DHT22;4504;48.810;9.172;2023-04-25T15:56:39;11.20;99.90
8939;DHT22;4504;48.810;9.172;2023-04-25T15:59:06;11.20;99.90
8939;DHT22;4504;48.810;9.172;2023-04-25T16:01:33;11.20;99.90
8939;DHT22;4504;48.810;9.172;2023-04-25T16:04:00;11.40;99.90
8939;DHT22;4504;48.810;9.172;2023-04-25T16:06:27;11.50;99.90
8939;DHT22;4504;48.810;9.172;2023-04-25T16:08:55;11.30;99.90
8939;DHT22;4504;48.810;9.172;2023-04-25T16:11:23;11.20;99.90
8939;DHT22;4504;48.810;9.172;2023-04-25T16:13:50;11.00;99.90
8939;DHT22;4504;48.810;9.172;2023-04-25T16:16:17;10.90;99.90
8939;DHT22;4504;48.810;9.172;2023-04-25T16:18:44;10.90;99.90
8939;DHT22;4504;48.810;9.172;2023-04-25T16:21:11;10.70;99.90
8939;DHT22;4504;48.810;9.172;2023-04-25T17:20:37;10.10;99.90
8939;DHT22;4504;48.810;9.172;2023-04-25T17:23:04;10.10;99.90
8939;DHT22;4504;48.810;9.172;2023-04-25T17:25:31;10.00;99.90
8939;DHT22;4504;48.810;9.172;2023-04-25T17:27:58;10.00;99.90
8939;DHT22;4504;48.810;9.172;2023-04-25T17:30:25;9.90;99.90